createdAt,value
2019-04-25T00:00:22.417Z,69.45
2019-04-25T00:01:22.458Z,65.40
2019-04-25T00:02:22.394Z,69.62
2019-04-25T00:03:22.399Z,67.73
2019-04-25T00:04:22.373Z,65.42
2019-04-25T00:05:22.363Z,62.39
2019-04-25T00:06:23.052Z,60.63
2019-04-25T00:07:22.392Z,59.89
2019-04-25T00:08:22.330Z,56.97
2019-04-25T00:09:22.322Z,57.71
2019-04-25T00:10:22.318Z,58.94
2019-04-25T00:11:22.297Z,62.42
2019-04-25T00:12:22.388Z,65.29
2019-04-25T00:13:22.376Z,68.35
2019-04-25T00:14:22.697Z,70.84
2019-04-25T00:15:22.442Z,72.44
2019-04-25T00:16:22.246Z,74.04
2019-04-25T00:17:22.235Z,75.86
2019-04-25T00:18:23.371Z,77.95
2019-04-25T00:19:22.260Z,80.17
2019-04-25T00:20:22.199Z,77.84
2019-04-25T00:21:22.192Z,74.25
2019-04-25T00:22:22.176Z,75.28
2019-04-25T00:23:22.167Z,79.14
2019-04-25T00:24:23.799Z,76.94
2019-04-25T00:25:22.198Z,72.88
2019-04-25T00:26:22.134Z,68.81
2019-04-25T00:27:23.763Z,65.35
2019-04-25T00:28:22.113Z,63.08
2019-04-25T00:29:22.203Z,62.82
2019-04-25T00:30:22.581Z,61.47
2019-04-25T00:31:22.137Z,60.29
2019-04-25T00:32:22.072Z,59.96
2019-04-25T00:33:22.061Z,57.93
2019-04-25T00:34:22.055Z,58.61
2019-04-25T00:35:22.036Z,57.73
2019-04-25T00:36:22.027Z,58.03
2019-04-25T00:37:22.632Z,57.93
2019-04-25T00:38:22.278Z,57.47
2019-04-25T00:39:21.997Z,57.17
2019-04-25T00:40:22.027Z,57.07
2019-04-25T00:41:21.978Z,56.31
2019-04-25T00:42:23.218Z,58.29
2019-04-25T00:43:22.103Z,58.72
2019-04-25T00:44:22.056Z,58.70
2019-04-25T00:45:22.341Z,62.20
2019-04-25T00:46:22.565Z,63.24
2019-04-25T00:47:21.908Z,61.59
2019-04-25T00:48:22.328Z,62.40
2019-04-25T00:49:23.583Z,60.57
2019-04-25T00:50:22.010Z,62.09
2019-04-25T00:51:21.870Z,61.83
2019-04-25T00:52:22.836Z,60.89
2019-04-25T00:53:21.844Z,60.79
2019-04-25T00:54:22.699Z,59.57
2019-04-25T00:55:28.493Z,59.29
2019-04-25T00:56:48.290Z,60.67
2019-04-25T00:57:46.753Z,61.57
2019-04-25T00:58:46.810Z,64.34
2019-04-25T00:59:46.891Z,67.06
2019-04-25T01:00:46.942Z,69.00
2019-04-25T01:01:47.925Z,72.88
2019-04-25T01:02:47.326Z,71.04
2019-04-25T01:03:47.174Z,72.03
2019-04-25T01:04:47.195Z,73.53
2019-04-25T01:05:47.467Z,74.42
2019-04-25T01:06:47.525Z,77.19
2019-04-25T01:07:46.507Z,75.65
2019-04-25T01:08:46.496Z,77.13
2019-04-25T01:09:46.485Z,77.03
2019-04-25T01:10:46.476Z,78.46
2019-04-25T01:11:46.464Z,77.74
2019-04-25T01:12:46.503Z,78.81
2019-04-25T01:13:46.455Z,78.77
2019-04-25T01:14:46.530Z,81.26
2019-04-25T01:15:46.462Z,77.39
2019-04-25T01:16:46.542Z,77.53
2019-04-25T01:17:46.976Z,72.99
2019-04-25T01:18:46.795Z,75.03
2019-04-25T01:19:46.781Z,71.32
2019-04-25T01:20:46.961Z,68.09
2019-04-25T01:21:46.993Z,65.52
2019-04-25T01:22:47.173Z,65.18
2019-04-25T01:23:47.265Z,64.64
2019-04-25T01:24:47.212Z,62.84
2019-04-25T01:25:47.063Z,63.48
2019-04-25T01:26:46.301Z,65.95
2019-04-25T01:27:46.298Z,66.46
2019-04-25T01:28:46.285Z,65.55
2019-04-25T01:29:46.358Z,62.27
2019-04-25T01:30:46.385Z,62.57
2019-04-25T01:31:46.624Z,62.54
2019-04-25T01:32:46.773Z,62.17
2019-04-25T01:33:46.773Z,64.10
2019-04-25T01:34:47.027Z,60.51
2019-04-25T01:35:47.259Z,61.59
2019-04-25T01:36:47.177Z,63.62
2019-04-25T01:37:47.375Z,63.72
2019-04-25T01:38:47.314Z,65.38
2019-04-25T01:39:47.448Z,64.44
2019-04-25T01:40:47.128Z,62.47
2019-04-25T01:41:47.579Z,62.05
2019-04-25T01:42:46.180Z,63.91
2019-04-25T01:43:46.118Z,65.21
2019-04-25T01:44:46.105Z,66.33
2019-04-25T01:45:46.096Z,64.33
2019-04-25T01:46:46.085Z,64.19
2019-04-25T01:47:46.130Z,64.47
2019-04-25T01:48:46.073Z,64.97
2019-04-25T01:49:46.056Z,63.62
2019-04-25T01:50:46.042Z,63.28
2019-04-25T01:51:46.028Z,62.84
2019-04-25T01:52:46.023Z,66.84
2019-04-25T01:53:46.062Z,64.32
2019-04-25T01:54:46.000Z,67.10
2019-04-25T01:55:55.989Z,66.07
2019-04-25T01:57:10.791Z,62.84
2019-04-25T01:58:10.779Z,62.43
2019-04-25T01:59:10.822Z,63.00
2019-04-25T02:00:10.759Z,66.19
2019-04-25T02:01:10.749Z,68.17
2019-04-25T02:02:10.737Z,63.56
2019-04-25T02:03:10.734Z,62.54
2019-04-25T02:04:10.715Z,62.17
2019-04-25T02:05:10.803Z,62.35
2019-04-25T02:06:10.699Z,66.69
2019-04-25T02:07:10.684Z,66.96
2019-04-25T02:08:10.671Z,68.63
2019-04-25T02:09:10.660Z,68.49
2019-04-25T02:10:10.650Z,68.63
2019-04-25T02:11:10.738Z,69.11
2019-04-25T02:12:10.629Z,70.02
2019-04-25T02:13:10.617Z,71.41
2019-04-25T02:14:10.608Z,72.27
2019-04-25T02:15:10.597Z,74.66
2019-04-25T02:16:10.838Z,75.07
2019-04-25T02:17:10.575Z,76.78
2019-04-25T02:18:10.564Z,76.72
2019-04-25T02:19:10.554Z,76.92
2019-04-25T02:20:10.543Z,77.03
2019-04-25T02:21:10.531Z,76.72
2019-04-25T02:22:10.572Z,76.82
2019-04-25T02:23:10.513Z,77.03
2019-04-25T02:24:10.499Z,76.51
2019-04-25T02:25:10.489Z,77.64
2019-04-25T02:26:16.027Z,77.13
2019-04-25T02:27:35.331Z,78.94
2019-04-25T02:28:35.321Z,76.30
2019-04-25T02:29:35.313Z,78.93
2019-04-25T02:30:35.793Z,77.35
2019-04-25T02:31:35.288Z,72.47
2019-04-25T02:32:37.197Z,71.73
2019-04-25T02:33:35.269Z,68.02
2019-04-25T02:34:35.263Z,71.15
2019-04-25T02:35:35.249Z,70.34
2019-04-25T02:36:35.263Z,68.03
2019-04-25T02:37:35.317Z,62.32
2019-04-25T02:38:35.269Z,62.35
2019-04-25T02:39:37.330Z,62.82
2019-04-25T02:40:35.199Z,64.58
2019-04-25T02:41:35.186Z,66.32
2019-04-25T02:42:35.173Z,65.33
2019-04-25T02:43:35.334Z,66.05
2019-04-25T02:44:35.254Z,67.24
2019-04-25T02:45:35.140Z,68.43
2019-04-25T02:46:37.240Z,63.98
2019-04-25T02:47:35.121Z,62.66
2019-04-25T02:48:35.108Z,63.84
2019-04-25T02:49:38.882Z,65.24
2019-04-25T02:50:35.238Z,64.76
2019-04-25T02:51:35.145Z,64.92
2019-04-25T02:52:35.064Z,66.08
2019-04-25T02:53:37.294Z,70.94
2019-04-25T02:54:35.053Z,68.91
2019-04-25T02:55:37.565Z,67.21
2019-04-25T02:56:38.709Z,66.00
2019-04-25T02:57:35.020Z,60.00
2019-04-25T02:58:35.006Z,61.66
2019-04-25T02:59:36.962Z,63.69
2019-04-25T03:00:51.323Z,63.84
2019-04-25T03:02:00.731Z,59.86
2019-04-25T03:03:01.000Z,58.92
2019-04-25T03:04:00.956Z,58.18
2019-04-25T03:05:01.173Z,56.64
2019-04-25T03:06:01.451Z,54.91
2019-04-25T03:07:00.695Z,53.82
2019-04-25T03:08:01.270Z,58.23
2019-04-25T03:09:00.304Z,58.41
2019-04-25T03:09:59.823Z,58.46
2019-04-25T03:10:59.892Z,55.82
2019-04-25T03:11:59.981Z,56.94
2019-04-25T03:14:00.523Z,53.97
2019-04-25T03:15:00.126Z,55.29
2019-04-25T03:16:00.579Z,54.08
2019-04-25T03:17:00.411Z,54.20
2019-04-25T03:18:00.202Z,55.01
2019-04-25T03:19:00.548Z,54.33
2019-04-25T03:20:01.234Z,56.28
2019-04-25T03:21:01.163Z,55.95
2019-04-25T03:22:01.400Z,56.05
2019-04-25T03:23:01.132Z,55.39
2019-04-25T03:24:01.320Z,54.15
2019-04-25T03:25:00.339Z,51.75
2019-04-25T03:27:00.802Z,51.97
2019-04-25T03:27:59.678Z,54.94
2019-04-25T03:28:59.720Z,55.47
2019-04-25T03:29:59.736Z,55.01
2019-04-25T03:30:59.856Z,56.06
2019-04-25T03:32:00.939Z,58.55
2019-04-25T03:33:02.210Z,58.61
2019-04-25T03:34:02.182Z,61.92
2019-04-25T03:35:01.155Z,61.74
2019-04-25T03:35:59.511Z,61.71
2019-04-25T03:36:59.500Z,61.64
2019-04-25T03:38:00.472Z,62.49
2019-04-25T03:38:59.999Z,63.97
2019-04-25T03:39:59.468Z,64.75
2019-04-25T03:41:00.175Z,65.90
2019-04-25T03:41:59.444Z,66.31
2019-04-25T03:42:59.435Z,66.52
2019-04-25T03:43:59.475Z,70.88
2019-04-25T03:44:59.412Z,66.49
2019-04-25T03:45:59.399Z,68.60
2019-04-25T03:46:59.392Z,67.38
2019-04-25T03:47:59.379Z,63.76
2019-04-25T03:48:59.369Z,62.31
2019-04-25T03:49:59.409Z,62.12
2019-04-25T03:50:59.345Z,60.44
2019-04-25T03:51:59.336Z,57.85
2019-04-25T03:52:59.325Z,57.11
2019-04-25T03:53:59.313Z,55.77
2019-04-25T03:54:59.302Z,55.04
2019-04-25T03:56:59.384Z,50.89
2019-04-25T03:57:59.272Z,53.36
2019-04-25T03:58:59.259Z,56.33
2019-04-25T03:59:59.247Z,54.48
2019-04-25T04:00:59.244Z,54.13
2019-04-25T04:02:01.165Z,55.52
2019-04-25T04:02:59.266Z,58.90
2019-04-25T04:03:59.205Z,56.08
2019-04-25T04:04:59.194Z,57.33
2019-04-25T04:05:59.184Z,58.70
2019-04-25T04:06:59.173Z,61.28
2019-04-25T04:07:59.162Z,62.95
2019-04-25T04:08:59.249Z,58.65
2019-04-25T04:09:59.140Z,59.80
2019-04-25T04:10:59.130Z,58.30
2019-04-25T04:11:59.119Z,63.89
2019-04-25T04:12:59.109Z,60.74
2019-04-25T04:13:59.098Z,61.79
2019-04-25T04:14:59.187Z,63.34
2019-04-25T04:15:59.077Z,62.25
2019-04-25T04:16:59.064Z,63.17
2019-04-25T04:17:59.053Z,64.93
2019-04-25T04:18:59.042Z,65.17
2019-04-25T04:19:59.032Z,64.48
2019-04-25T04:20:59.118Z,65.91
2019-04-25T04:21:59.007Z,64.69
2019-04-25T04:22:58.997Z,66.52
2019-04-25T04:23:58.985Z,69.59
2019-04-25T04:24:58.978Z,65.60
2019-04-25T04:25:58.966Z,60.38
2019-04-25T04:27:03.613Z,61.50
2019-04-25T04:28:23.756Z,58.52
2019-04-25T04:29:25.495Z,58.22
2019-04-25T04:30:24.216Z,59.10
2019-04-25T04:31:23.728Z,58.52
2019-04-25T04:32:24.250Z,58.65
2019-04-25T04:33:31.907Z,61.60
2019-04-25T04:34:48.508Z,58.39
2019-04-25T04:35:48.497Z,58.11
2019-04-25T04:36:48.485Z,59.67
2019-04-25T04:37:48.524Z,60.64
2019-04-25T04:38:48.538Z,62.29
2019-04-25T04:39:48.471Z,63.65
2019-04-25T04:40:48.442Z,63.88
2019-04-25T04:41:48.432Z,63.37
2019-04-25T04:42:48.421Z,63.61
2019-04-25T04:43:48.458Z,64.35
2019-04-25T04:44:48.400Z,64.32
2019-04-25T04:45:48.388Z,65.27
2019-04-25T04:46:48.377Z,66.83
2019-04-25T04:47:48.367Z,65.37
2019-04-25T04:48:48.505Z,65.20
2019-04-25T04:49:48.345Z,65.98
2019-04-25T04:50:48.337Z,66.29
2019-04-25T04:51:48.323Z,67.01
2019-04-25T04:52:48.311Z,67.21
2019-04-25T04:53:48.300Z,65.75
2019-04-25T04:54:48.388Z,64.56
2019-04-25T04:55:48.280Z,63.40
2019-04-25T04:56:48.266Z,63.20
2019-04-25T04:57:48.255Z,63.13
2019-04-25T04:58:48.247Z,64.32
2019-04-25T04:59:48.234Z,63.51
2019-04-25T05:00:48.273Z,62.76
2019-04-25T05:01:48.214Z,62.96
2019-04-25T05:02:48.202Z,64.09
2019-04-25T05:03:48.193Z,62.53
2019-04-25T05:04:48.178Z,61.10
2019-04-25T05:05:48.226Z,60.49
2019-04-25T05:06:48.160Z,66.95
2019-04-25T05:07:48.150Z,60.89
2019-04-25T05:08:48.140Z,64.18
2019-04-25T05:09:48.127Z,61.38
2019-04-25T05:10:48.115Z,56.92
2019-04-25T05:11:48.154Z,57.22
2019-04-25T05:12:48.094Z,57.73
2019-04-25T05:13:48.087Z,57.65
2019-04-25T05:14:48.073Z,58.50
2019-04-25T05:15:48.064Z,58.80
2019-04-25T05:16:49.553Z,58.93
2019-04-25T05:17:48.125Z,60.18
2019-04-25T05:18:48.034Z,60.48
2019-04-25T05:19:48.018Z,60.89
2019-04-25T05:20:48.010Z,61.12
2019-04-25T05:21:48.001Z,62.24
2019-04-25T05:22:48.139Z,62.95
2019-04-25T05:23:47.978Z,62.34
2019-04-25T05:24:47.965Z,62.54
2019-04-25T05:25:47.955Z,62.54
2019-04-25T05:26:47.942Z,63.69
2019-04-25T05:27:59.673Z,63.76
2019-04-25T05:28:49.125Z,64.10
2019-04-25T05:29:47.912Z,65.22
2019-04-25T05:30:47.902Z,64.50
2019-04-25T05:31:47.893Z,63.89
2019-04-25T05:32:48.013Z,64.00
2019-04-25T05:33:47.873Z,65.15
2019-04-25T05:34:49.315Z,65.83
2019-04-25T05:35:47.849Z,64.30
2019-04-25T05:36:47.837Z,66.71
2019-04-25T05:37:47.827Z,65.06
2019-04-25T05:38:47.818Z,63.29
2019-04-25T05:39:47.804Z,63.60
2019-04-25T05:41:47.936Z,63.63
2019-04-25T05:42:47.774Z,63.73
2019-04-25T05:43:47.761Z,63.56
2019-04-25T05:44:47.754Z,64.27
2019-04-25T05:45:47.740Z,63.66
2019-04-25T05:46:47.817Z,64.78
2019-04-25T05:47:47.770Z,64.55
2019-04-25T05:48:47.710Z,65.57
2019-04-25T05:49:47.705Z,65.39
2019-04-25T05:50:47.693Z,65.60
2019-04-25T05:51:47.677Z,65.09
2019-04-25T05:52:47.666Z,64.85
2019-04-25T05:53:47.754Z,64.95
2019-04-25T05:54:47.646Z,63.63
2019-04-25T05:55:47.635Z,63.94
2019-04-25T05:56:47.623Z,64.78
2019-04-25T05:57:50.113Z,65.49
2019-04-25T05:58:47.601Z,64.99
2019-04-25T05:59:47.743Z,65.19
2019-04-25T06:00:47.580Z,66.61
2019-04-25T06:01:47.570Z,67.77
2019-04-25T06:02:47.557Z,64.94
2019-04-25T06:03:47.548Z,60.76
2019-04-25T06:04:47.537Z,60.53
2019-04-25T06:05:47.582Z,58.35
2019-04-25T06:06:47.515Z,56.90
2019-04-25T06:07:47.508Z,57.01
2019-04-25T06:08:47.495Z,56.17
2019-04-25T06:09:47.485Z,55.87
2019-04-25T06:10:47.525Z,56.30
2019-04-25T06:11:47.463Z,55.09
2019-04-25T06:12:47.451Z,54.91
2019-04-25T06:13:47.440Z,56.68
2019-04-25T06:14:47.430Z,56.71
2019-04-25T06:15:47.668Z,58.56
2019-04-25T06:16:47.407Z,58.86
2019-04-25T06:17:47.397Z,61.87
2019-04-25T06:18:47.384Z,60.60
2019-04-25T06:19:47.377Z,57.14
2019-04-25T06:20:47.363Z,58.35
2019-04-25T06:21:47.455Z,57.67
2019-04-25T06:22:47.342Z,59.28
2019-04-25T06:23:47.331Z,57.64
2019-04-25T06:24:47.321Z,58.65
2019-04-25T06:25:47.308Z,55.69
2019-04-25T06:26:47.300Z,56.93
2019-04-25T06:27:56.369Z,57.94
2019-04-25T06:29:13.413Z,58.20
2019-04-25T06:30:12.079Z,58.50
2019-04-25T06:31:13.678Z,58.63
2019-04-25T06:32:14.114Z,58.86
2019-04-25T06:34:13.975Z,60.89
2019-04-25T06:35:12.024Z,60.72
2019-04-25T06:36:12.013Z,63.25
2019-04-25T06:37:12.003Z,58.69
2019-04-25T06:38:13.373Z,60.89
2019-04-25T06:39:11.980Z,60.51
2019-04-25T06:40:13.730Z,61.96
2019-04-25T06:41:13.445Z,60.44
2019-04-25T06:42:11.951Z,62.90
2019-04-25T06:43:13.473Z,62.93
2019-04-25T06:44:13.617Z,63.98
2019-04-25T06:45:13.531Z,65.78
2019-04-25T06:46:12.006Z,64.74
2019-04-25T06:47:13.042Z,62.12
2019-04-25T06:48:11.883Z,60.11
2019-04-25T06:49:13.399Z,57.81
2019-04-25T06:50:11.859Z,56.44
2019-04-25T06:51:13.417Z,54.45
2019-04-25T06:52:11.887Z,53.42
2019-04-25T06:53:13.478Z,53.69
2019-04-25T06:54:13.460Z,52.28
2019-04-25T06:55:11.806Z,52.26
2019-04-25T06:56:13.568Z,52.64
2019-04-25T06:57:11.786Z,52.64
2019-04-25T06:58:14.072Z,52.23
2019-04-25T06:59:13.557Z,51.13
2019-04-25T07:00:11.750Z,52.54
2019-04-25T07:01:13.315Z,51.83
2019-04-25T07:02:11.730Z,51.13
2019-04-25T07:03:11.718Z,48.66
2019-04-25T07:04:11.757Z,51.00
2019-04-25T07:05:25.595Z,51.45
2019-04-25T07:06:12.980Z,53.90
2019-04-25T07:07:14.358Z,52.99
2019-04-25T07:08:13.193Z,55.51
2019-04-25T07:09:11.652Z,55.51
2019-04-25T07:10:13.247Z,55.38
2019-04-25T07:11:11.632Z,54.75
2019-04-25T07:12:13.397Z,54.65
2019-04-25T07:13:11.608Z,55.33
2019-04-25T07:14:11.596Z,54.70
2019-04-25T07:15:11.639Z,54.07
2019-04-25T07:16:13.278Z,53.67
2019-04-25T07:17:11.570Z,53.24
2019-04-25T07:18:11.561Z,51.63
2019-04-25T07:19:11.551Z,52.64
2019-04-25T07:20:11.540Z,52.84
2019-04-25T07:21:11.570Z,52.61
2019-04-25T07:22:11.517Z,51.61
2019-04-25T07:23:11.501Z,52.74
2019-04-25T07:24:11.489Z,53.02
2019-04-25T07:25:13.086Z,49.70
2019-04-25T07:26:11.466Z,47.44
2019-04-25T07:27:11.558Z,49.82
2019-04-25T07:28:22.222Z,52.03
2019-04-25T07:29:13.448Z,50.27
2019-04-25T07:30:11.426Z,51.30
2019-04-25T07:31:11.417Z,51.70
2019-04-25T07:32:11.552Z,54.60
2019-04-25T07:33:11.394Z,55.86
2019-04-25T07:34:11.379Z,54.17
2019-04-25T07:35:11.368Z,51.51
2019-04-25T07:36:11.438Z,51.71
2019-04-25T07:37:13.147Z,49.27
2019-04-25T07:38:11.388Z,51.36
2019-04-25T07:39:11.325Z,45.48
2019-04-25T07:40:11.317Z,46.03
2019-04-25T07:41:14.076Z,46.50
2019-04-25T07:42:11.294Z,45.81
2019-04-25T07:43:11.283Z,53.27
2019-04-25T07:44:11.372Z,47.60
2019-04-25T07:45:11.321Z,48.84
2019-04-25T07:46:11.259Z,48.13
2019-04-25T07:47:11.246Z,48.48
2019-04-25T07:48:11.230Z,49.31
2019-04-25T07:49:11.218Z,49.49
2019-04-25T07:50:11.356Z,48.30
2019-04-25T07:51:11.198Z,47.57
2019-04-25T07:52:11.593Z,52.49
2019-04-25T07:53:11.173Z,55.46
2019-04-25T07:54:11.163Z,51.58
2019-04-25T07:55:11.156Z,51.66
2019-04-25T07:56:11.241Z,50.50
2019-04-25T07:57:11.133Z,48.98
2019-04-25T07:58:11.124Z,44.06
2019-04-25T07:59:11.111Z,44.68
2019-04-25T08:00:11.102Z,44.20
2019-04-25T08:01:11.091Z,45.55
2019-04-25T08:02:13.271Z,46.60
2019-04-25T08:03:11.070Z,48.13
2019-04-25T08:04:11.060Z,49.56
2019-04-25T08:05:11.050Z,48.40
2019-04-25T08:06:11.039Z,49.33
2019-04-25T08:07:11.379Z,50.77
2019-04-25T08:08:11.021Z,52.11
2019-04-25T08:09:11.007Z,50.49
2019-04-25T08:10:10.993Z,50.31
2019-04-25T08:11:10.987Z,52.45
2019-04-25T08:12:11.323Z,52.76
2019-04-25T08:13:10.962Z,53.80
2019-04-25T08:14:10.956Z,53.82
2019-04-25T08:15:10.940Z,54.55
2019-04-25T08:16:10.930Z,54.26
2019-04-25T08:17:10.921Z,53.95
2019-04-25T08:18:10.955Z,54.05
2019-04-25T08:19:10.897Z,54.15
2019-04-25T08:20:10.885Z,55.19
2019-04-25T08:21:10.877Z,55.19
2019-04-25T08:22:10.866Z,55.19
2019-04-25T08:23:10.853Z,54.79
2019-04-25T08:24:10.892Z,55.98
2019-04-25T08:25:10.830Z,55.47
2019-04-25T08:26:10.820Z,53.95
2019-04-25T08:27:10.810Z,54.46
2019-04-25T08:28:10.804Z,54.15
2019-04-25T08:29:10.791Z,55.77
2019-04-25T08:30:11.031Z,57.09
2019-04-25T08:31:10.769Z,56.38
2019-04-25T08:32:10.757Z,56.07
2019-04-25T08:33:10.741Z,55.44
2019-04-25T08:34:10.732Z,54.02
2019-04-25T08:35:10.719Z,56.05
2019-04-25T08:36:10.758Z,55.41
2019-04-25T08:37:18.191Z,58.35
2019-04-25T08:38:36.107Z,54.33
2019-04-25T08:39:37.323Z,53.69
2019-04-25T08:40:37.310Z,52.18
2019-04-25T08:41:36.045Z,53.90
2019-04-25T08:42:36.691Z,52.61
2019-04-25T08:43:37.804Z,53.32
2019-04-25T08:44:35.981Z,54.13
2019-04-25T08:45:37.044Z,53.32
2019-04-25T08:46:36.843Z,54.33
2019-04-25T08:47:36.170Z,54.25
2019-04-25T08:48:35.812Z,52.43
2019-04-25T08:49:36.257Z,52.84
2019-04-25T08:50:38.656Z,53.27
2019-04-25T08:51:36.094Z,52.45
2019-04-25T08:52:36.324Z,53.69
2019-04-25T08:53:36.538Z,54.20
2019-04-25T08:54:39.706Z,54.81
2019-04-25T08:56:00.138Z,56.56
2019-04-25T08:57:00.127Z,55.54
2019-04-25T08:58:00.134Z,54.13
2019-04-25T08:59:04.169Z,55.11
2019-04-25T09:00:24.912Z,54.10
2019-04-25T09:01:24.903Z,55.19
2019-04-25T09:02:24.891Z,55.69
2019-04-25T09:03:24.881Z,56.98
2019-04-25T09:05:24.909Z,54.96
2019-04-25T09:06:24.848Z,54.63
2019-04-25T09:07:24.841Z,53.72
2019-04-25T09:08:24.830Z,53.32
2019-04-25T09:09:24.820Z,53.95
2019-04-25T09:10:24.810Z,54.66
2019-04-25T09:11:25.049Z,55.36
2019-04-25T09:12:24.788Z,54.43
2019-04-25T09:13:24.780Z,53.95
2019-04-25T09:14:24.770Z,55.79
2019-04-25T09:15:24.759Z,55.99
2019-04-25T09:16:24.750Z,55.57
2019-04-25T09:17:24.790Z,55.39
2019-04-25T09:18:24.727Z,55.09
2019-04-25T09:19:24.716Z,55.39
2019-04-25T09:20:24.708Z,59.30
2019-04-25T09:21:24.698Z,54.38
2019-04-25T09:22:24.685Z,52.53
2019-04-25T09:23:24.726Z,52.23
2019-04-25T09:24:24.709Z,53.34
2019-04-25T09:25:24.655Z,53.80
2019-04-25T09:26:24.648Z,54.30
2019-04-25T09:27:24.634Z,55.01
2019-04-25T09:28:24.624Z,53.69
2019-04-25T09:29:24.766Z,54.33
2019-04-25T09:30:24.603Z,55.54
2019-04-25T09:31:24.594Z,54.80
2019-04-25T09:32:24.584Z,54.40
2019-04-25T09:33:24.574Z,53.52
2019-04-25T09:34:24.567Z,54.35
2019-04-25T09:36:24.589Z,57.86
2019-04-25T09:37:24.701Z,54.10
2019-04-25T09:38:24.521Z,54.27
2019-04-25T09:39:24.514Z,55.76
2019-04-25T09:40:24.501Z,53.29
2019-04-25T09:41:24.490Z,51.30
2019-04-25T09:43:24.574Z,52.51
2019-04-25T09:44:24.460Z,51.73
2019-04-25T09:45:26.310Z,52.36
2019-04-25T09:46:24.442Z,51.68
2019-04-25T09:47:24.432Z,52.61
2019-04-25T09:48:24.416Z,53.04
2019-04-25T09:49:24.507Z,54.18
2019-04-25T09:50:24.398Z,54.78
2019-04-25T09:51:24.389Z,53.90
2019-04-25T09:52:24.474Z,55.21
2019-04-25T09:53:25.996Z,54.60
2019-04-25T09:54:24.365Z,54.20
2019-04-25T09:55:24.398Z,55.31
2019-04-25T09:56:24.336Z,55.01
2019-04-25T09:57:24.324Z,53.37
2019-04-25T09:58:24.317Z,53.87
2019-04-25T09:59:27.948Z,54.15
2019-04-25T10:00:24.445Z,52.53
2019-04-25T10:01:24.284Z,53.42
2019-04-25T10:02:24.276Z,51.30
2019-04-25T10:03:24.261Z,51.60
2019-04-25T10:04:24.253Z,51.50
2019-04-25T10:05:24.245Z,51.62
2019-04-25T10:06:24.287Z,51.83
2019-04-25T10:07:24.221Z,52.33
2019-04-25T10:08:24.296Z,52.63
2019-04-25T10:09:24.205Z,55.06
2019-04-25T10:10:24.221Z,53.24
2019-04-25T10:11:24.183Z,53.16
2019-04-25T10:12:24.224Z,56.88
2019-04-25T10:13:25.250Z,56.04
2019-04-25T10:14:24.535Z,57.08
2019-04-25T10:15:24.139Z,53.62
2019-04-25T10:16:24.128Z,50.07
2019-04-25T10:17:24.618Z,52.39
2019-04-25T10:18:24.111Z,49.38
2019-04-25T10:19:24.100Z,49.89
2019-04-25T10:20:24.088Z,53.85
2019-04-25T10:21:24.077Z,51.42
2019-04-25T10:22:24.118Z,51.45
2019-04-25T10:23:24.164Z,51.35
2019-04-25T10:24:24.050Z,51.17
2019-04-25T10:25:24.035Z,51.30
2019-04-25T10:26:24.027Z,53.02
2019-04-25T10:27:24.221Z,52.71
2019-04-25T10:28:24.006Z,52.41
2019-04-25T10:29:23.998Z,52.53
2019-04-25T10:30:25.918Z,52.48
2019-04-25T10:31:23.974Z,52.89
2019-04-25T10:32:23.965Z,54.84
2019-04-25T10:33:24.370Z,54.13
2019-04-25T10:34:24.219Z,52.74
2019-04-25T10:35:23.974Z,52.96
2019-04-25T10:36:24.663Z,57.72
2019-04-25T10:37:23.913Z,59.69
2019-04-25T10:38:24.198Z,53.29
2019-04-25T10:39:23.982Z,54.20
2019-04-25T10:40:25.043Z,57.92
2019-04-25T10:41:24.440Z,57.56
2019-04-25T10:42:23.991Z,52.11
2019-04-25T10:43:24.068Z,52.43
2019-04-25T10:44:24.523Z,53.54
2019-04-25T10:45:25.945Z,54.02
2019-04-25T10:46:24.433Z,53.72
2019-04-25T10:47:23.812Z,53.52
2019-04-25T10:48:24.118Z,56.65
2019-04-25T10:49:23.786Z,52.51
2019-04-25T10:51:24.076Z,52.31
2019-04-25T10:52:23.751Z,52.51
2019-04-25T10:53:25.182Z,51.93
2019-04-25T10:54:23.731Z,52.66
2019-04-25T10:55:23.721Z,54.78
2019-04-25T10:56:24.309Z,54.88
2019-04-25T10:57:24.930Z,52.96
2019-04-25T10:58:23.687Z,53.01
2019-04-25T10:59:23.702Z,53.54
2019-04-25T11:00:24.136Z,54.58
2019-04-25T11:01:24.399Z,54.88
2019-04-25T11:02:23.677Z,56.13
2019-04-25T11:03:24.133Z,56.56
2019-04-25T11:04:23.624Z,57.20
2019-04-25T11:05:23.913Z,57.12
2019-04-25T11:06:23.607Z,58.27
2019-04-25T11:07:23.590Z,58.47
2019-04-25T11:08:24.550Z,58.57
2019-04-25T11:09:24.281Z,59.31
2019-04-25T11:10:23.658Z,59.61
2019-04-25T11:11:24.100Z,60.12
2019-04-25T11:12:23.604Z,60.15
2019-04-25T11:13:23.528Z,59.03
2019-04-25T11:14:23.977Z,59.74
2019-04-25T11:15:23.604Z,59.64
2019-04-25T11:16:24.220Z,60.66
2019-04-25T11:17:24.278Z,60.15
2019-04-25T11:18:23.838Z,59.91
2019-04-25T11:19:23.964Z,59.51
2019-04-25T11:20:23.456Z,57.78
2019-04-25T11:22:23.984Z,56.08
2019-04-25T11:23:23.425Z,57.00
2019-04-25T11:24:23.805Z,55.98
2019-04-25T11:25:24.046Z,57.40
2019-04-25T11:26:23.390Z,55.37
2019-04-25T11:27:23.962Z,55.78
2019-04-25T11:28:23.623Z,57.30
2019-04-25T11:29:24.021Z,55.48
2019-04-25T11:30:23.373Z,56.59
2019-04-25T11:31:23.639Z,56.97
2019-04-25T11:32:23.819Z,57.08
2019-04-25T11:33:24.651Z,55.85
2019-04-25T11:34:23.414Z,56.16
2019-04-25T11:35:24.188Z,57.89
2019-04-25T11:36:24.865Z,57.51
2019-04-25T11:37:23.908Z,58.19
2019-04-25T11:38:23.736Z,58.29
2019-04-25T11:39:23.939Z,58.39
2019-04-25T11:40:23.494Z,58.70
2019-04-25T11:41:24.244Z,58.42
2019-04-25T11:42:23.378Z,58.11
2019-04-25T11:43:23.216Z,59.13
2019-04-25T11:44:24.557Z,58.22
2019-04-25T11:45:23.292Z,59.03
2019-04-25T11:46:24.174Z,58.52
2019-04-25T11:47:24.258Z,58.22
2019-04-25T11:48:23.827Z,59.64
2019-04-25T11:49:23.843Z,59.44
2019-04-25T11:50:23.141Z,59.24
2019-04-25T11:51:24.023Z,59.53
2019-04-25T11:52:28.198Z,59.44
2019-04-25T11:53:48.458Z,60.15
2019-04-25T11:54:48.176Z,59.24
2019-04-25T11:55:49.289Z,59.77
2019-04-25T11:56:48.630Z,59.57
2019-04-25T11:57:50.068Z,60.38
2019-04-25T11:58:48.900Z,60.38
2019-04-25T11:59:49.306Z,59.97
2019-04-25T12:00:48.834Z,60.07
2019-04-25T12:01:47.839Z,60.21
2019-04-25T12:02:47.878Z,60.41
2019-04-25T12:03:48.960Z,60.71
2019-04-25T12:04:48.163Z,60.71
2019-04-25T12:05:48.395Z,61.02
2019-04-25T12:06:47.787Z,60.30
2019-04-25T12:07:47.956Z,58.88
2019-04-25T12:08:47.810Z,59.90
2019-04-25T12:09:48.144Z,58.88
2019-04-25T12:10:47.901Z,59.62
2019-04-25T12:11:48.517Z,60.23
2019-04-25T12:12:47.721Z,60.21
2019-04-25T12:13:48.105Z,60.44
2019-04-25T12:14:47.949Z,60.41
2019-04-25T12:15:47.687Z,59.60
2019-04-25T12:16:50.087Z,60.51
2019-04-25T12:17:47.668Z,59.80
2019-04-25T12:18:50.029Z,58.88
2019-04-25T12:19:47.646Z,60.00
2019-04-25T12:20:48.703Z,59.08
2019-04-25T12:21:48.170Z,60.21
2019-04-25T12:22:48.290Z,59.80
2019-04-25T12:23:48.727Z,60.21
2019-04-25T12:24:47.893Z,60.41
2019-04-25T12:25:47.629Z,60.21
2019-04-25T12:26:48.677Z,59.69
2019-04-25T12:27:49.863Z,60.54
2019-04-25T12:28:47.551Z,60.71
2019-04-25T12:29:47.547Z,61.66
2019-04-25T12:30:47.529Z,62.27
2019-04-25T12:31:47.711Z,62.37
2019-04-25T12:32:47.974Z,60.98
2019-04-25T12:33:48.657Z,61.86
2019-04-25T12:34:47.545Z,62.29
2019-04-25T12:35:47.952Z,62.20
2019-04-25T12:36:47.576Z,60.29
2019-04-25T12:37:48.142Z,62.20
2019-04-25T12:38:48.350Z,61.71
2019-04-25T12:39:48.422Z,61.10
2019-04-25T12:40:48.192Z,61.82
2019-04-25T12:41:49.053Z,62.56
2019-04-25T12:42:47.878Z,62.25
2019-04-25T12:43:47.391Z,62.05
2019-04-25T12:44:48.598Z,62.15
2019-04-25T12:45:47.370Z,62.25
2019-04-25T12:46:48.437Z,62.46
2019-04-25T12:47:47.662Z,63.98
2019-04-25T12:48:47.645Z,64.39
2019-04-25T12:49:47.330Z,63.88
2019-04-25T12:50:47.926Z,64.09
2019-04-25T12:51:47.780Z,65.21
2019-04-25T12:52:48.595Z,64.90
2019-04-25T12:53:48.007Z,64.73
2019-04-25T12:54:47.586Z,65.03
2019-04-25T12:55:47.483Z,64.93
2019-04-25T12:56:47.482Z,64.53
2019-04-25T12:57:48.146Z,64.66
2019-04-25T12:58:47.978Z,64.42
2019-04-25T12:59:47.385Z,64.42
2019-04-25T13:00:49.391Z,64.22
2019-04-25T13:01:47.196Z,63.81
2019-04-25T13:02:47.237Z,64.53
2019-04-25T13:03:48.107Z,63.71
2019-04-25T13:04:47.837Z,64.32
2019-04-25T13:05:47.290Z,64.01
2019-04-25T13:06:48.689Z,63.20